sensor_id;sensor_type;location;lat;lon;timestamp;pressure;altitude;pressure_sealevel;temperature;humidity
39769;BME280;38939;47.824;14.642;2022-12-07T00:00:24;96692.91;;;4.58;88.08
39769;BME280;38939;47.824;14.642;2022-12-07T00:01:27;96699.56;;;4.61;88.39
39769;BME280;38939;47.824;14.642;2022-12-07T00:02:30;96700.34;;;4.61;88.62
39769;BME280;38939;47.824;14.642;2022-12-07T00:03:32;96698.75;;;4.60;88.40
39769;BME280;38939;47.824;14.642;2022-12-07T00:04:34;96695.19;;;4.61;88.49
39769;BME280;38939;47.824;14.642;2022-12-07T00:05:36;96700.03;;;4.65;88.62
39769;BME280;38939;47.824;14.642;2022-12-07T00:06:39;96690.00;;;4.61;88.29
39769;BME280;38939;47.824;14.642;2022-12-07T00:07:41;96689.38;;;4.59;88.53
39769;BME280;38939;47.824;14.642;2022-12-07T00:08:44;96687.59;;;4.60;88.56
39769;BME280;38939;47.824;14.642;2022-12-07T00:09:46;96689.22;;;4.61;88.73
39769;BME280;38939;47.824;14.642;2022-12-07T00:10:47;96689.06;;;4.63;88.84
39769;BME280;38939;47.824;14.642;2022-12-07T00:11:50;96678.53;;;4.64;88.27
39769;BME280;38939;47.824;14.642;2022-12-07T00:12:52;96685.47;;;4.64;88.60
39769;BME280;38939;47.824;14.642;2022-12-07T00:13:55;96682.09;;;4.63;88.47
39769;BME280;38939;47.824;14.642;2022-12-07T00:14:57;96686.13;;;4.66;88.75
39769;BME280;38939;47.824;14.642;2022-12-07T00:16:02;96684.16;;;4.68;88.38
39769;BME280;38939;47.824;14.642;2022-12-07T00:17:04;96689.16;;;4.69;88.60
39769;BME280;38939;47.824;14.642;2022-12-07T00:18:07;96688.19;;;4.70;88.39
39769;BME280;38939;47.824;14.642;2022-12-07T00:19:09;96686.22;;;4.72;88.47
39769;BME280;38939;47.824;14.642;2022-12-07T00:20:12;96679.31;;;4.73;87.97
39769;BME280;38939;47.824;14.642;2022-12-07T00:21:17;96685.44;;;4.72;88.27
39769;BME280;38939;47.824;14.642;2022-12-07T00:22:20;96678.66;;;4.71;88.36
39769;BME280;38939;47.824;14.642;2022-12-07T00:23:22;96680.44;;;4.70;87.82
39769;BME280;38939;47.824;14.642;2022-12-07T00:24:24;96684.63;;;4.71;88.30
39769;BME280;38939;47.824;14.642;2022-12-07T00:25:26;96684.47;;;4.73;87.89
39769;BME280;38939;47.824;14.642;2022-12-07T00:26:29;96681.88;;;4.73;87.96
39769;BME280;38939;47.824;14.642;2022-12-07T00:27:31;96680.25;;;4.72;87.72
39769;BME280;38939;47.824;14.642;2022-12-07T00:28:33;96670.72;;;4.72;87.80
39769;BME280;38939;47.824;14.642;2022-12-07T00:29:35;96678.66;;;4.71;87.53
39769;BME280;38939;47.824;14.642;2022-12-07T00:30:38;96668.66;;;4.68;87.98
39769;BME280;38939;47.824;14.642;2022-12-07T00:31:40;96673.03;;;4.67;88.01
39769;BME280;38939;47.824;14.642;2022-12-07T00:32:42;96670.59;;;4.66;87.88
39769;BME280;38939;47.824;14.642;2022-12-07T00:33:44;96672.22;;;4.67;88.19
39769;BME280;38939;47.824;14.642;2022-12-07T00:34:46;96675.13;;;4.64;88.07
39769;BME280;38939;47.824;14.642;2022-12-07T00:35:54;96671.28;;;4.59;87.83
39769;BME280;38939;47.824;14.642;2022-12-07T00:36:56;96677.88;;;4.62;88.14
39769;BME280;38939;47.824;14.642;2022-12-07T00:37:58;96671.75;;;4.63;88.17
39769;BME280;38939;47.824;14.642;2022-12-07T00:39:00;96678.38;;;4.66;88.03
39769;BME280;38939;47.824;14.642;2022-12-07T00:40:02;96678.38;;;4.66;88.20
39769;BME280;38939;47.824;14.642;2022-12-07T00:41:05;96679.16;;;4.66;88.19
39769;BME280;38939;47.824;14.642;2022-12-07T00:42:08;96679.00;;;4.68;87.94
39769;BME280;38939;47.824;14.642;2022-12-07T00:43:10;96674.81;;;4.67;88.16
39769;BME280;38939;47.824;14.642;2022-12-07T00:44:11;96678.19;;;4.67;88.21
39769;BME280;38939;47.824;14.642;2022-12-07T00:45:14;96675.44;;;4.69;88.02
39769;BME280;38939;47.824;14.642;2022-12-07T00:46:17;96676.41;;;4.68;88.58
39769;BME280;38939;47.824;14.642;2022-12-07T00:47:19;96675.94;;;4.64;88.10
39769;BME280;38939;47.824;14.642;2022-12-07T00:48:21;96668.38;;;4.63;88.79
39769;BME280;38939;47.824;14.642;2022-12-07T00:49:23;96666.13;;;4.59;88.51
39769;BME280;38939;47.824;14.642;2022-12-07T00:50:25;96664.16;;;4.61;88.45
39769;BME280;38939;47.824;14.642;2022-12-07T00:51:27;96675.03;;;4.57;88.49
39769;BME280;38939;47.824;14.642;2022-12-07T00:52:29;96665.81;;;4.54;88.72
39769;BME280;38939;47.824;14.642;2022-12-07T00:53:33;96670.03;;;4.55;88.81
39769;BME280;38939;47.824;14.642;2022-12-07T00:54:41;96670.81;;;4.56;88.73
39769;BME280;38939;47.824;14.642;2022-12-07T00:55:43;96668.06;;;4.57;88.90
39769;BME280;38939;47.824;14.642;2022-12-07T00:56:45;96662.75;;;4.59;88.90
39769;BME280;38939;47.824;14.642;2022-12-07T00:57:47;96669.66;;;4.58;88.79
39769;BME280;38939;47.824;14.642;2022-12-07T00:58:51;96670.50;;;4.59;88.50
39769;BME280;38939;47.824;14.642;2022-12-07T00:59:53;96668.53;;;4.61;88.28
39769;BME280;38939;47.824;14.642;2022-12-07T01:01:03;96671.75;;;4.63;88.56
39769;BME280;38939;47.824;14.642;2022-12-07T01:02:06;96669.97;;;4.64;88.43
39769;BME280;38939;47.824;14.642;2022-12-07T01:03:09;96668.19;;;4.64;88.40
39769;BME280;38939;47.824;14.642;2022-12-07T01:04:11;96673.19;;;4.66;88.28
39769;BME280;38939;47.824;14.642;2022-12-07T01:05:13;96668.81;;;4.66;88.55
39769;BME280;38939;47.824;14.642;2022-12-07T01:06:15;96672.03;;;4.68;88.62
39769;BME280;38939;47.824;14.642;2022-12-07T01:07:18;96670.28;;;4.69;88.79
39769;BME280;38939;47.824;14.642;2022-12-07T01:08:20;96663.97;;;4.71;88.65
39769;BME280;38939;47.824;14.642;2022-12-07T01:09:22;96674.13;;;4.73;88.96
39769;BME280;38939;47.824;14.642;2022-12-07T01:10:24;96661.22;;;4.73;88.32
39769;BME280;38939;47.824;14.642;2022-12-07T01:11:27;96667.97;;;4.74;88.44
39769;BME280;38939;47.824;14.642;2022-12-07T01:12:30;96673.16;;;4.74;88.20
39769;BME280;38939;47.824;14.642;2022-12-07T01:13:32;96665.91;;;4.69;88.40
39769;BME280;38939;47.824;14.642;2022-12-07T01:14:34;96673.81;;;4.68;88.31
39769;BME280;38939;47.824;14.642;2022-12-07T01:15:43;96672.03;;;4.68;88.65
39769;BME280;38939;47.824;14.642;2022-12-07T01:16:45;96679.63;;;4.70;88.68
39769;BME280;38939;47.824;14.642;2022-12-07T01:17:48;96672.50;;;4.72;88.45
39769;BME280;38939;47.824;14.642;2022-12-07T01:18:51;96670.72;;;4.72;88.25
39769;BME280;38939;47.824;14.642;2022-12-07T01:19:53;96681.06;;;4.72;88.41
39769;BME280;38939;47.824;14.642;2022-12-07T01:20:59;96679.47;;;4.71;88.64
39769;BME280;38939;47.824;14.642;2022-12-07T01:22:01;96677.22;;;4.68;88.31
39769;BME280;38939;47.824;14.642;2022-12-07T01:23:03;96680.94;;;4.66;88.45
39769;BME280;38939;47.824;14.642;2022-12-07T01:24:06;96680.31;;;4.64;88.32
39769;BME280;38939;47.824;14.642;2022-12-07T01:25:09;96680.31;;;4.64;88.41
39769;BME280;38939;47.824;14.642;2022-12-07T01:26:14;96678.19;;;4.67;88.53
39769;BME280;38939;47.824;14.642;2022-12-07T01:27:16;96676.41;;;4.68;88.30
39769;BME280;38939;47.824;14.642;2022-12-07T01:28:18;96670.28;;;4.69;88.19
39769;BME280;38939;47.824;14.642;2022-12-07T01:29:20;96676.25;;;4.69;88.16
39769;BME280;38939;47.824;14.642;2022-12-07T01:30:22;96671.88;;;4.70;88.10
39769;BME280;38939;47.824;14.642;2022-12-07T01:31:25;96673.50;;;4.71;88.44
39769;BME280;38939;47.824;14.642;2022-12-07T01:32:27;96667.34;;;4.72;88.19
39769;BME280;38939;47.824;14.642;2022-12-07T01:33:30;96667.19;;;4.73;88.31
39769;BME280;38939;47.824;14.642;2022-12-07T01:34:32;96670.72;;;4.72;88.21
39769;BME280;38939;47.824;14.642;2022-12-07T01:35:35;96664.75;;;4.72;88.00
39769;BME280;38939;47.824;14.642;2022-12-07T01:36:37;96670.72;;;4.72;88.23
39769;BME280;38939;47.824;14.642;2022-12-07T01:37:39;96673.16;;;4.74;88.15
39769;BME280;38939;47.824;14.642;2022-12-07T01:38:41;96669.94;;;4.72;88.07
39769;BME280;38939;47.824;14.642;2022-12-07T01:39:43;96675.09;;;4.72;88.29
39769;BME280;38939;47.824;14.642;2022-12-07T01:40:45;96682.22;;;4.70;88.32
39769;BME280;38939;47.824;14.642;2022-12-07T01:41:54;96670.28;;;4.69;88.24
39769;BME280;38939;47.824;14.642;2022-12-07T01:42:56;96674.47;;;4.70;88.17
39769;BME280;38939;47.824;14.642;2022-12-07T01:44:12;96672.69;;;4.70;88.17
39769;BME280;38939;47.824;14.642;2022-12-07T01:46:17;96667.38;;;4.64;87.98
39769;BME280;38939;47.824;14.642;2022-12-07T01:47:19;96670.97;;;4.63;88.15
39769;BME280;38939;47.824;14.642;2022-12-07T01:48:23;96669.97;;;4.64;88.22
39769;BME280;38939;47.824;14.642;2022-12-07T01:50:40;96667.88;;;4.67;88.23
39769;BME280;38939;47.824;14.642;2022-12-07T01:51:43;96671.88;;;4.70;88.21
39769;BME280;38939;47.824;14.642;2022-12-07T01:52:46;96667.69;;;4.69;88.63
39769;BME280;38939;47.824;14.642;2022-12-07T01:53:50;96668.50;;;4.69;88.57
39769;BME280;38939;47.824;14.642;2022-12-07T01:54:53;96664.13;;;4.70;88.61
39769;BME280;38939;47.824;14.642;2022-12-07T01:55:57;96671.88;;;4.70;88.29
39769;BME280;38939;47.824;14.642;2022-12-07T01:57:00;96665.13;;;4.69;88.02
39769;BME280;38939;47.824;14.642;2022-12-07T01:58:02;96669.47;;;4.68;87.86
39769;BME280;38939;47.824;14.642;2022-12-07T01:59:05;96661.69;;;4.68;88.15
39769;BME280;38939;47.824;14.642;2022-12-07T02:00:07;96666.72;;;4.70;88.20
39769;BME280;38939;47.824;14.642;2022-12-07T02:01:09;96658.00;;;4.71;87.92
39769;BME280;38939;47.824;14.642;2022-12-07T02:02:15;96662.53;;;4.69;88.21
39769;BME280;38939;47.824;14.642;2022-12-07T02:03:21;96659.13;;;4.68;88.20
39769;BME280;38939;47.824;14.642;2022-12-07T02:04:24;96664.13;;;4.70;88.18
39769;BME280;38939;47.824;14.642;2022-12-07T02:05:26;96660.56;;;4.71;88.24
39769;BME280;38939;47.824;14.642;2022-12-07T02:06:29;96657.00;;;4.72;88.31
39769;BME280;38939;47.824;14.642;2022-12-07T02:07:32;96657.63;;;4.74;88.39
39769;BME280;38939;47.824;14.642;2022-12-07T02:08:35;96656.84;;;4.73;88.15
39769;BME280;38939;47.824;14.642;2022-12-07T02:09:38;96651.66;;;4.73;88.30
39769;BME280;38939;47.824;14.642;2022-12-07T02:10:40;96654.41;;;4.72;87.88
39769;BME280;38939;47.824;14.642;2022-12-07T02:11:42;96656.53;;;4.68;88.22
39769;BME280;38939;47.824;14.642;2022-12-07T02:12:44;96654.16;;;4.67;88.34
39769;BME280;38939;47.824;14.642;2022-12-07T02:13:49;96662.84;;;4.66;88.09
39769;BME280;38939;47.824;14.642;2022-12-07T02:14:51;96655.47;;;4.63;87.99
39769;BME280;38939;47.824;14.642;2022-12-07T02:19:45;96654.81;;;4.60;88.59
39769;BME280;38939;47.824;14.642;2022-12-07T02:21:02;96652.56;;;4.57;88.78
39769;BME280;38939;47.824;14.642;2022-12-07T02:28:05;96643.19;;;4.65;88.97
39769;BME280;38939;47.824;14.642;2022-12-07T02:29:10;96648.78;;;4.68;88.93
39769;BME280;38939;47.824;14.642;2022-12-07T02:30:17;96647.03;;;4.69;89.14
39769;BME280;38939;47.824;14.642;2022-12-07T02:31:20;96644.44;;;4.69;88.60
39769;BME280;38939;47.824;14.642;2022-12-07T02:32:25;96646.38;;;4.67;88.64
39769;BME280;38939;47.824;14.642;2022-12-07T02:33:28;96645.13;;;4.63;88.91
39769;BME280;38939;47.824;14.642;2022-12-07T02:34:54;96647.88;;;4.61;89.03
39769;BME280;38939;47.824;14.642;2022-12-07T02:36:02;96644.31;;;4.62;88.60
39769;BME280;38939;47.824;14.642;2022-12-07T02:37:10;96647.88;;;4.61;88.86
39769;BME280;38939;47.824;14.642;2022-12-07T02:39:54;96633.97;;;4.62;88.77
39769;BME280;38939;47.824;14.642;2022-12-07T02:40:48;96635.59;;;4.63;88.69
39769;BME280;38939;47.824;14.642;2022-12-07T02:41:55;96630.88;;;4.67;88.72
39769;BME280;38939;47.824;14.642;2022-12-07T02:43:04;96641.22;;;4.67;88.81
39769;BME280;38939;47.824;14.642;2022-12-07T02:44:10;96636.38;;;4.64;88.75
39769;BME280;38939;47.824;14.642;2022-12-07T02:45:15;96639.13;;;4.62;89.06
39769;BME280;38939;47.824;14.642;2022-12-07T02:46:20;96639.97;;;4.63;88.57
39769;BME280;38939;47.824;14.642;2022-12-07T02:47:24;96637.38;;;4.63;88.65
39769;BME280;38939;47.824;14.642;2022-12-07T02:48:26;96628.63;;;4.64;88.79
39769;BME280;38939;47.824;14.642;2022-12-07T02:49:29;96635.22;;;4.66;88.73
39769;BME280;38939;47.824;14.642;2022-12-07T02:50:31;96635.41;;;4.65;88.82
39769;BME280;38939;47.824;14.642;2022-12-07T02:51:33;96634.59;;;4.64;88.71
39769;BME280;38939;47.824;14.642;2022-12-07T02:52:35;96641.56;;;4.64;88.77
39769;BME280;38939;47.824;14.642;2022-12-07T02:53:38;96635.59;;;4.63;88.95
39769;BME280;38939;47.824;14.642;2022-12-07T02:54:40;96637.38;;;4.63;88.89
39769;BME280;38939;47.824;14.642;2022-12-07T02:55:42;96638.50;;;4.60;88.98
39769;BME280;38939;47.824;14.642;2022-12-07T03:00:25;96639.47;;;4.59;89.10
39769;BME280;38939;47.824;14.642;2022-12-07T03:03:00;96632.84;;;4.65;88.90
39769;BME280;38939;47.824;14.642;2022-12-07T03:04:52;96634.44;;;4.66;89.22
39769;BME280;38939;47.824;14.642;2022-12-07T03:06:31;96634.91;;;4.69;88.93
39769;BME280;38939;47.824;14.642;2022-12-07T03:07:51;96637.47;;;4.69;89.07
39769;BME280;38939;47.824;14.642;2022-12-07T03:09:13;96637.66;;;4.68;88.89
39769;BME280;38939;47.824;14.642;2022-12-07T03:11:37;96640.22;;;4.68;88.87
39769;BME280;38939;47.824;14.642;2022-12-07T03:15:11;96632.16;;;4.71;88.69
39769;BME280;38939;47.824;14.642;2022-12-07T03:16:18;96627.78;;;4.71;88.73
39769;BME280;38939;47.824;14.642;2022-12-07T03:17:26;96639.91;;;4.71;88.79
39769;BME280;38939;47.824;14.642;2022-12-07T03:18:38;96631.31;;;4.70;88.69
39769;BME280;38939;47.824;14.642;2022-12-07T03:19:41;96634.91;;;4.69;88.74
39769;BME280;38939;47.824;14.642;2022-12-07T03:20:44;96631.53;;;4.69;88.64
39769;BME280;38939;47.824;14.642;2022-12-07T03:21:53;96633.91;;;4.70;89.05
39769;BME280;38939;47.824;14.642;2022-12-07T03:22:57;96630.53;;;4.70;88.71
39769;BME280;38939;47.824;14.642;2022-12-07T03:24:00;96625.72;;;4.67;88.74
39769;BME280;38939;47.824;14.642;2022-12-07T03:25:06;96629.91;;;4.68;89.06
39769;BME280;38939;47.824;14.642;2022-12-07T03:26:10;96624.41;;;4.71;88.87
39769;BME280;38939;47.824;14.642;2022-12-07T03:27:21;96626.00;;;4.72;88.87
39769;BME280;38939;47.824;14.642;2022-12-07T03:28:26;96625.84;;;4.73;88.82
39769;BME280;38939;47.824;14.642;2022-12-07T03:29:34;96631.63;;;4.75;88.81
39769;BME280;38939;47.824;14.642;2022-12-07T03:30:39;96626.47;;;4.75;88.96
39769;BME280;38939;47.824;14.642;2022-12-07T03:31:45;96631.78;;;4.74;88.84
39769;BME280;38939;47.824;14.642;2022-12-07T03:32:51;96624.03;;;4.74;88.75
39769;BME280;38939;47.824;14.642;2022-12-07T03:36:21;96626.00;;;4.72;88.58
39769;BME280;38939;47.824;14.642;2022-12-07T03:41:08;96631.16;;;4.72;88.72
39769;BME280;38939;47.824;14.642;2022-12-07T03:42:13;96632.16;;;4.71;88.54
39769;BME280;38939;47.824;14.642;2022-12-07T03:43:15;96630.53;;;4.70;88.68
39769;BME280;38939;47.824;14.642;2022-12-07T03:44:18;96631.31;;;4.70;88.58
39769;BME280;38939;47.824;14.642;2022-12-07T03:45:21;96629.56;;;4.71;88.65
39769;BME280;38939;47.824;14.642;2022-12-07T03:46:34;96632.78;;;4.73;88.89
39769;BME280;38939;47.824;14.642;2022-12-07T03:51:31;96629.38;;;4.72;89.16
39769;BME280;38939;47.824;14.642;2022-12-07T03:54:10;96626.00;;;4.72;88.86
39769;BME280;38939;47.824;14.642;2022-12-07T03:55:34;96624.84;;;4.74;88.90
39769;BME280;38939;47.824;14.642;2022-12-07T03:56:37;96629.03;;;4.75;88.94
39769;BME280;38939;47.824;14.642;2022-12-07T03:57:40;96631.47;;;4.77;89.01
39769;BME280;38939;47.824;14.642;2022-12-07T03:58:43;96624.66;;;4.76;89.21
39769;BME280;38939;47.824;14.642;2022-12-07T03:59:45;96627.41;;;4.74;89.13
39769;BME280;38939;47.824;14.642;2022-12-07T04:00:48;96625.84;;;4.73;88.73
39769;BME280;38939;47.824;14.642;2022-12-07T04:01:52;96622.44;;;4.73;88.79
39769;BME280;38939;47.824;14.642;2022-12-07T04:02:55;96627.94;;;4.70;88.88
39769;BME280;38939;47.824;14.642;2022-12-07T04:03:57;96629.91;;;4.68;89.02
39769;BME280;38939;47.824;14.642;2022-12-07T04:04:59;96626.50;;;4.67;89.15
39769;BME280;38939;47.824;14.642;2022-12-07T04:06:01;96635.06;;;4.68;89.02
39769;BME280;38939;47.824;14.642;2022-12-07T04:07:03;96630.06;;;4.66;89.20
39769;BME280;38939;47.824;14.642;2022-12-07T04:08:05;96630.69;;;4.68;89.22
39769;BME280;38939;47.824;14.642;2022-12-07T04:09:07;96631.53;;;4.69;89.25
39769;BME280;38939;47.824;14.642;2022-12-07T04:10:09;96631.31;;;4.70;89.10
39769;BME280;38939;47.824;14.642;2022-12-07T04:11:11;96624.56;;;4.69;89.12
39769;BME280;38939;47.824;14.642;2022-12-07T04:12:13;96626.16;;;4.70;89.00
39769;BME280;38939;47.824;14.642;2022-12-07T04:13:15;96622.63;;;4.71;88.91
39769;BME280;38939;47.824;14.642;2022-12-07T04:14:17;96617.44;;;4.71;89.35
39769;BME280;38939;47.824;14.642;2022-12-07T04:15:22;96623.25;;;4.73;88.93
39769;BME280;38939;47.824;14.642;2022-12-07T04:16:24;96625.66;;;4.75;88.93
39769;BME280;38939;47.824;14.642;2022-12-07T04:17:26;96626.28;;;4.77;89.17
39769;BME280;38939;47.824;14.642;2022-12-07T04:18:28;96620.13;;;4.78;88.86
39769;BME280;38939;47.824;14.642;2022-12-07T04:19:31;96621.75;;;4.79;88.83
39769;BME280;38939;47.824;14.642;2022-12-07T04:20:33;96622.38;;;4.81;88.76
39769;BME280;38939;47.824;14.642;2022-12-07T04:21:35;96624.78;;;4.82;88.51
39769;BME280;38939;47.824;14.642;2022-12-07T04:22:37;96623.97;;;4.82;88.48
39769;BME280;38939;47.824;14.642;2022-12-07T04:23:39;96622.38;;;4.81;88.62
39769;BME280;38939;47.824;14.642;2022-12-07T04:24:41;96625.94;;;4.80;88.62
39769;BME280;38939;47.824;14.642;2022-12-07T04:25:43;96632.09;;;4.79;88.79
39769;BME280;38939;47.824;14.642;2022-12-07T04:26:45;96627.88;;;4.78;88.58
39769;BME280;38939;47.824;14.642;2022-12-07T04:27:48;96626.09;;;4.78;88.58
39769;BME280;38939;47.824;14.642;2022-12-07T04:28:50;96632.72;;;4.81;88.70
39769;BME280;38939;47.824;14.642;2022-12-07T04:29:52;96624.97;;;4.81;88.55
39769;BME280;38939;47.824;14.642;2022-12-07T04:30:54;96628.34;;;4.81;88.63
39769;BME280;38939;47.824;14.642;2022-12-07T04:31:56;96624.97;;;4.81;88.57
39769;BME280;38939;47.824;14.642;2022-12-07T04:32:59;96627.88;;;4.78;88.48
39769;BME280;38939;47.824;14.642;2022-12-07T04:34:02;96629.03;;;4.75;89.03
39769;BME280;38939;47.824;14.642;2022-12-07T04:35:04;96623.09;;;4.75;89.26
39769;BME280;38939;47.824;14.642;2022-12-07T04:36:07;96626.47;;;4.75;89.23
39769;BME280;38939;47.824;14.642;2022-12-07T04:37:09;96620.50;;;4.75;89.39
39769;BME280;38939;47.824;14.642;2022-12-07T04:38:10;96618.53;;;4.77;89.24
39769;BME280;38939;47.824;14.642;2022-12-07T04:39:23;96626.94;;;4.79;89.05
39769;BME280;38939;47.824;14.642;2022-12-07T04:40:25;96629.69;;;4.77;89.20
39769;BME280;38939;47.824;14.642;2022-12-07T04:41:26;96626.28;;;4.77;89.24
39769;BME280;38939;47.824;14.642;2022-12-07T04:42:28;96622.72;;;4.78;89.10
39769;BME280;38939;47.824;14.642;2022-12-07T04:43:30;96632.91;;;4.79;88.71
39769;BME280;38939;47.824;14.642;2022-12-07T04:44:32;96618.97;;;4.80;88.88
39769;BME280;38939;47.824;14.642;2022-12-07T04:45:34;96623.19;;;4.81;88.71
39769;BME280;38939;47.824;14.642;2022-12-07T04:46:36;96619.97;;;4.79;88.80
39769;BME280;38939;47.824;14.642;2022-12-07T04:47:38;96616.59;;;4.79;88.76
39769;BME280;38939;47.824;14.642;2022-12-07T04:48:40;96614.44;;;4.82;88.69
39769;BME280;38939;47.824;14.642;2022-12-07T04:49:42;96616.88;;;4.84;89.03
39769;BME280;38939;47.824;14.642;2022-12-07T04:50:44;96618.66;;;4.84;88.56
39769;BME280;38939;47.824;14.642;2022-12-07T04:51:46;96607.69;;;4.81;88.50
39769;BME280;38939;47.824;14.642;2022-12-07T04:52:49;96614.34;;;4.76;88.58
39769;BME280;38939;47.824;14.642;2022-12-07T04:53:51;96611.13;;;4.74;88.28
39769;BME280;38939;47.824;14.642;2022-12-07T04:54:53;96616.44;;;4.72;88.69
39769;BME280;38939;47.824;14.642;2022-12-07T04:55:55;96614.84;;;4.71;88.61
39769;BME280;38939;47.824;14.642;2022-12-07T04:56:57;96617.59;;;4.70;89.24
39769;BME280;38939;47.824;14.642;2022-12-07T04:57:59;96617.59;;;4.70;89.10
39769;BME280;38939;47.824;14.642;2022-12-07T04:59:01;96623.41;;;4.72;88.68
39769;BME280;38939;47.824;14.642;2022-12-07T05:00:03;96623.25;;;4.73;88.92
39769;BME280;38939;47.824;14.642;2022-12-07T05:01:06;96622.88;;;4.76;88.57
39769;BME280;38939;47.824;14.642;2022-12-07T05:02:08;96618.34;;;4.78;88.25
39769;BME280;38939;47.824;14.642;2022-12-07T05:03:10;96622.72;;;4.78;88.70
39769;BME280;38939;47.824;14.642;2022-12-07T05:04:13;96617.56;;;4.78;88.79
39769;BME280;38939;47.824;14.642;2022-12-07T05:05:15;96622.72;;;4.78;89.11
39769;BME280;38939;47.824;14.642;2022-12-07T05:06:17;96621.63;;;4.72;89.01
39769;BME280;38939;47.824;14.642;2022-12-07T05:07:19;96621.97;;;4.69;89.12
39769;BME280;38939;47.824;14.642;2022-12-07T05:08:20;96624.56;;;4.69;89.13
39769;BME280;38939;47.824;14.642;2022-12-07T05:09:23;96617.78;;;4.68;89.17
39769;BME280;38939;47.824;14.642;2022-12-07T05:10:24;96623.94;;;4.67;89.17
39769;BME280;38939;47.824;14.642;2022-12-07T05:11:26;96618.25;;;4.72;89.36
39769;BME280;38939;47.824;14.642;2022-12-07T05:12:40;96619.50;;;4.76;89.24
39769;BME280;38939;47.824;14.642;2022-12-07T05:13:42;96614.34;;;4.76;89.50
39769;BME280;38939;47.824;14.642;2022-12-07T05:14:44;96617.91;;;4.75;89.32
39769;BME280;38939;47.824;14.642;2022-12-07T05:15:47;96624.03;;;4.74;89.29
39769;BME280;38939;47.824;14.642;2022-12-07T05:16:50;96623.09;;;4.75;89.31
39769;BME280;38939;47.824;14.642;2022-12-07T05:17:52;96618.53;;;4.77;89.59
39769;BME280;38939;47.824;14.642;2022-12-07T05:18:54;96614.81;;;4.79;89.50
39769;BME280;38939;47.824;14.642;2022-12-07T05:19:56;96611.06;;;4.82;89.56
39769;BME280;38939;47.824;14.642;2022-12-07T05:21:00;96610.09;;;4.83;89.04
39769;BME280;38939;47.824;14.642;2022-12-07T05:22:02;96606.53;;;4.84;88.98
39769;BME280;38939;47.824;14.642;2022-12-07T05:23:04;96610.72;;;4.85;89.24
39769;BME280;38939;47.824;14.642;2022-12-07T05:24:07;96608.94;;;4.86;88.96
39769;BME280;38939;47.824;14.642;2022-12-07T05:25:10;96605.72;;;4.84;89.08
39769;BME280;38939;47.824;14.642;2022-12-07T05:26:12;96604.94;;;4.83;88.92
39769;BME280;38939;47.824;14.642;2022-12-07T05:27:14;96611.22;;;4.80;89.12
39769;BME280;38939;47.824;14.642;2022-12-07T05:28:16;96610.97;;;4.75;88.83
39769;BME280;38939;47.824;14.642;2022-12-07T05:29:18;96616.03;;;4.69;89.11
39769;BME280;38939;47.824;14.642;2022-12-07T05:30:21;96613.44;;;4.69;89.30
39769;BME280;38939;47.824;14.642;2022-12-07T05:31:23;96611.81;;;4.68;88.81
39769;BME280;38939;47.824;14.642;2022-12-07T05:32:25;96614.56;;;4.66;89.17
39769;BME280;38939;47.824;14.642;2022-12-07T05:33:27;96615.72;;;4.64;88.56
39769;BME280;38939;47.824;14.642;2022-12-07T05:34:28;96614.75;;;4.65;88.63
39769;BME280;38939;47.824;14.642;2022-12-07T05:35:31;96617.34;;;4.65;89.06
39769;BME280;38939;47.824;14.642;2022-12-07T05:36:32;96626.50;;;4.67;89.05
39769;BME280;38939;47.824;14.642;2022-12-07T05:37:34;96614.75;;;4.65;89.21
39769;BME280;38939;47.824;14.642;2022-12-07T05:38:36;96616.88;;;4.61;89.13
39769;BME280;38939;47.824;14.642;2022-12-07T05:39:38;96624.78;;;4.59;89.61
39769;BME280;38939;47.824;14.642;2022-12-07T05:40:42;96622.19;;;4.59;89.16
39769;BME280;38939;47.824;14.642;2022-12-07T05:41:44;96623.63;;;4.62;89.16
39769;BME280;38939;47.824;14.642;2022-12-07T05:43:04;96617.19;;;4.58;88.95
39769;BME280;38939;47.824;14.642;2022-12-07T05:44:06;96617.34;;;4.56;89.04
39769;BME280;38939;47.824;14.642;2022-12-07T05:45:09;96621.56;;;4.57;89.21
39769;BME280;38939;47.824;14.642;2022-12-07T05:46:13;96618.34;;;4.55;89.08
39769;BME280;38939;47.824;14.642;2022-12-07T05:47:15;96623.50;;;4.55;89.31
39769;BME280;38939;47.824;14.642;2022-12-07T05:48:17;96623.50;;;4.55;89.24
39769;BME280;38939;47.824;14.642;2022-12-07T05:49:19;96621.88;;;4.54;89.22
39769;BME280;38939;47.824;14.642;2022-12-07T05:50:21;96616.72;;;4.54;89.17
39769;BME280;38939;47.824;14.642;2022-12-07T05:51:23;96618.50;;;4.54;89.02
39769;BME280;38939;47.824;14.642;2022-12-07T05:52:25;96628.38;;;4.50;89.13
39769;BME280;38939;47.824;14.642;2022-12-07T05:53:27;96627.28;;;4.45;89.03
39769;BME280;38939;47.824;14.642;2022-12-07T05:54:29;96628.88;;;4.46;89.21
39769;BME280;38939;47.824;14.642;2022-12-07T05:55:31;96627.75;;;4.48;88.91
39769;BME280;38939;47.824;14.642;2022-12-07T05:56:34;96632.91;;;4.48;89.17
39769;BME280;38939;47.824;14.642;2022-12-07T05:57:36;96628.72;;;4.47;89.19
39769;BME280;38939;47.824;14.642;2022-12-07T05:58:39;96630.50;;;4.47;89.18
39769;BME280;38939;47.824;14.642;2022-12-07T05:59:59;96633.59;;;4.42;88.95
39769;BME280;38939;47.824;14.642;2022-12-07T06:01:02;96637.16;;;4.41;89.23
39769;BME280;38939;47.824;14.642;2022-12-07T06:02:06;96641.19;;;4.44;89.34
39769;BME280;38939;47.824;14.642;2022-12-07T06:03:08;96631.63;;;4.44;89.22
39769;BME280;38939;47.824;14.642;2022-12-07T06:04:10;96641.00;;;4.45;89.49
39769;BME280;38939;47.824;14.642;2022-12-07T06:05:12;96638.06;;;4.48;89.41
39769;BME280;38939;47.824;14.642;2022-12-07T06:06:14;96643.06;;;4.50;89.37
39769;BME280;38939;47.824;14.642;2022-12-07T06:07:16;96642.91;;;4.51;89.32
39769;BME280;38939;47.824;14.642;2022-12-07T06:08:18;96649.69;;;4.52;89.44
39769;BME280;38939;47.824;14.642;2022-12-07T06:09:20;96644.50;;;4.52;89.25
39769;BME280;38939;47.824;14.642;2022-12-07T06:10:22;96647.72;;;4.54;89.46
39769;BME280;38939;47.824;14.642;2022-12-07T06:11:24;96644.19;;;4.55;89.35